Terminal Aerodrome Forecast
Issued by NWS Cleveland, OH

Home | Current Version | Previous Version | Graphics & Text | Print | Product List | Glossary On
Versions: 1 2 3 4 5 6 7 8 9 10 11 12 13 14 15 16 17 18 19 20
000
FTUS41 KCLE 220200 AAA
TAFERI
TAF AMD
KERI 220243Z 2203/2224 02012G22KT 6SM -SHRA OVC012
      TEMPO 2203/2205 4SM -SHRA OVC008
     FM220500 02012KT P6SM OVC015
     FM221300 01010KT P6SM OVC025
     FM221800 36010KT P6SM OVC035=

USA.gov is the U.S. government's official web portal to all federal, state and local government web resources and services.